createdAt,value
2018-04-24T00:00:39.271Z,21.03
2018-04-24T00:01:39.261Z,21.03
2018-04-24T00:02:39.250Z,21.05
2018-04-24T00:03:39.244Z,21.12
2018-04-24T00:04:39.339Z,21.00
2018-04-24T00:05:39.238Z,20.93
2018-04-24T00:06:39.222Z,20.93
2018-04-24T00:07:39.219Z,21.01
2018-04-24T00:08:39.220Z,20.94
2018-04-24T00:09:39.209Z,20.93
2018-04-24T00:10:39.195Z,20.91
2018-04-24T00:11:39.188Z,20.91
2018-04-24T00:12:39.183Z,20.88
2018-04-24T00:13:39.175Z,20.90
2018-04-24T00:14:39.164Z,20.81
2018-04-24T00:15:39.159Z,20.90
2018-04-24T00:16:39.150Z,20.93
2018-04-24T00:17:39.145Z,20.88
2018-04-24T00:18:39.135Z,20.85
2018-04-24T00:19:39.128Z,20.85
2018-04-24T00:20:39.121Z,20.88
2018-04-24T00:21:39.115Z,20.82
2018-04-24T00:22:39.111Z,20.85
2018-04-24T00:23:39.102Z,20.82
2018-04-24T00:24:39.093Z,20.88
2018-04-24T00:25:39.090Z,20.93
2018-04-24T00:26:39.084Z,20.91
2018-04-24T00:27:39.069Z,20.91
2018-04-24T00:28:39.062Z,20.87
2018-04-24T00:29:39.055Z,20.90
2018-04-24T00:30:39.053Z,20.90
2018-04-24T00:31:39.043Z,20.93
2018-04-24T00:32:39.039Z,20.94
2018-04-24T00:33:39.035Z,21.00
2018-04-24T00:34:39.019Z,21.05
2018-04-24T00:35:39.025Z,21.03
2018-04-24T00:36:39.008Z,20.94
2018-04-24T00:37:39.003Z,20.93
2018-04-24T00:38:38.992Z,20.87
2018-04-24T00:39:38.983Z,20.91
2018-04-24T00:40:38.978Z,20.91
2018-04-24T00:41:38.971Z,20.90
2018-04-24T00:42:38.961Z,20.82
2018-04-24T00:43:38.959Z,20.90
2018-04-24T00:44:38.947Z,20.88
2018-04-24T00:45:38.966Z,20.83
2018-04-24T00:46:38.934Z,20.87
2018-04-24T00:47:38.932Z,20.79
2018-04-24T00:48:38.919Z,20.87
2018-04-24T00:49:38.916Z,20.79
2018-04-24T00:50:38.909Z,20.79
2018-04-24T00:51:38.899Z,20.87
2018-04-24T00:52:38.894Z,20.87
2018-04-24T00:53:38.883Z,20.88
2018-04-24T00:54:38.875Z,20.83
2018-04-24T00:55:38.872Z,20.85
2018-04-24T00:56:38.862Z,20.87
2018-04-24T00:57:38.857Z,20.88
2018-04-24T00:58:38.846Z,20.88
2018-04-24T00:59:38.843Z,20.87
2018-04-24T01:00:38.840Z,20.90
2018-04-24T01:01:38.819Z,20.83
2018-04-24T01:02:38.813Z,20.81
2018-04-24T01:03:38.810Z,20.87
2018-04-24T01:04:38.800Z,20.88
2018-04-24T01:05:38.791Z,20.81
2018-04-24T01:06:38.789Z,20.83
2018-04-24T01:07:38.778Z,20.81
2018-04-24T01:08:38.775Z,20.79
2018-04-24T01:09:38.769Z,20.71
2018-04-24T01:10:38.762Z,20.78
2018-04-24T01:11:38.747Z,20.75
2018-04-24T01:12:38.748Z,20.79
2018-04-24T01:13:38.732Z,20.71
2018-04-24T01:14:38.726Z,20.78
2018-04-24T01:15:38.722Z,20.75
2018-04-24T01:16:38.713Z,20.76
2018-04-24T01:17:38.713Z,20.85
2018-04-24T01:18:38.696Z,20.73
2018-04-24T01:19:38.692Z,20.72
2018-04-24T01:20:38.683Z,20.66
2018-04-24T01:21:38.681Z,20.71
2018-04-24T01:22:38.666Z,20.66
2018-04-24T01:23:38.659Z,20.64
2018-04-24T01:24:38.657Z,20.64
2018-04-24T01:25:38.655Z,20.57
2018-04-24T01:26:38.645Z,20.63
2018-04-24T01:27:38.632Z,20.54
2018-04-24T01:28:38.622Z,20.54
2018-04-24T01:29:38.623Z,20.53
2018-04-24T01:30:38.613Z,20.54
2018-04-24T01:31:38.607Z,20.54
2018-04-24T01:32:38.595Z,20.60
2018-04-24T01:33:38.595Z,20.53
2018-04-24T01:34:38.689Z,20.53
2018-04-24T01:35:38.577Z,20.50
2018-04-24T01:36:38.570Z,20.69
2018-04-24T01:37:38.562Z,20.71
2018-04-24T01:38:38.550Z,20.73
2018-04-24T01:39:38.545Z,20.71
2018-04-24T01:40:38.543Z,20.66
2018-04-24T01:41:38.529Z,20.64
2018-04-24T01:42:38.523Z,20.66
2018-04-24T01:43:38.519Z,20.72
2018-04-24T01:44:38.507Z,20.71
2018-04-24T01:45:38.501Z,20.61
2018-04-24T01:46:38.495Z,20.66
2018-04-24T01:47:38.488Z,20.63
2018-04-24T01:48:38.478Z,20.68
2018-04-24T01:49:38.477Z,20.63
2018-04-24T01:50:38.463Z,20.66
2018-04-24T01:51:38.455Z,20.63
2018-04-24T01:52:38.446Z,20.66
2018-04-24T01:53:38.439Z,20.75
2018-04-24T01:54:38.438Z,20.72
2018-04-24T01:55:38.429Z,20.64
2018-04-24T01:56:38.420Z,20.71
2018-04-24T01:57:38.410Z,20.68
2018-04-24T01:58:38.402Z,20.60
2018-04-24T01:59:38.395Z,20.64
2018-04-24T02:00:38.388Z,20.54
2018-04-24T02:01:38.381Z,20.60
2018-04-24T02:02:38.372Z,20.66
2018-04-24T02:03:38.365Z,20.57
2018-04-24T02:04:38.359Z,20.56
2018-04-24T02:05:38.351Z,20.51
2018-04-24T02:06:38.337Z,20.61
2018-04-24T02:07:38.330Z,20.57
2018-04-24T02:08:38.323Z,20.57
2018-04-24T02:09:38.316Z,20.46
2018-04-24T02:10:38.311Z,20.51
2018-04-24T02:11:38.300Z,20.51
2018-04-24T02:12:38.292Z,20.50
2018-04-24T02:13:38.285Z,20.42
2018-04-24T02:14:38.276Z,20.50
2018-04-24T02:15:38.271Z,20.46
2018-04-24T02:16:38.266Z,20.38
2018-04-24T02:17:38.255Z,20.44
2018-04-24T02:18:38.255Z,20.34
2018-04-24T02:19:38.238Z,20.22
2018-04-24T02:20:38.243Z,20.16
2018-04-24T02:21:38.225Z,20.19
2018-04-24T02:22:38.228Z,20.15
2018-04-24T02:23:38.209Z,20.15
2018-04-24T02:24:38.203Z,20.23
2018-04-24T02:25:38.196Z,20.13
2018-04-24T02:26:38.187Z,20.07
2018-04-24T02:27:38.180Z,20.12
2018-04-24T02:28:38.172Z,20.05
2018-04-24T02:29:38.165Z,20.13
2018-04-24T02:30:38.157Z,20.07
2018-04-24T02:31:38.150Z,20.05
2018-04-24T02:32:38.142Z,20.00
2018-04-24T02:33:38.134Z,20.01
2018-04-24T02:34:38.127Z,20.01
2018-04-24T02:35:38.123Z,20.10
2018-04-24T02:36:38.111Z,20.08
2018-04-24T02:37:38.102Z,20.13
2018-04-24T02:38:38.095Z,20.07
2018-04-24T02:39:38.088Z,20.08
2018-04-24T02:40:38.079Z,20.17
2018-04-24T02:41:38.073Z,20.16
2018-04-24T02:42:38.063Z,20.15
2018-04-24T02:43:38.054Z,20.04
2018-04-24T02:44:38.049Z,20.02
2018-04-24T02:45:38.043Z,20.08
2018-04-24T02:46:38.037Z,20.12
2018-04-24T02:47:38.025Z,20.08
2018-04-24T02:48:38.018Z,20.15
2018-04-24T02:49:38.010Z,20.01
2018-04-24T02:50:38.004Z,20.00
2018-04-24T02:51:37.994Z,20.13
2018-04-24T02:52:37.995Z,20.08
2018-04-24T02:53:37.977Z,20.08
2018-04-24T02:54:37.972Z,20.15
2018-04-24T02:55:37.966Z,20.15
2018-04-24T02:56:37.959Z,20.19
2018-04-24T02:57:37.947Z,20.16
2018-04-24T02:58:37.939Z,20.19
2018-04-24T02:59:37.934Z,20.08
2018-04-24T03:00:37.922Z,20.13
2018-04-24T03:01:37.917Z,20.13
2018-04-24T03:02:37.911Z,20.04
2018-04-24T03:03:37.901Z,20.13
2018-04-24T03:04:37.893Z,20.02
2018-04-24T03:05:37.885Z,20.10
2018-04-24T03:06:37.877Z,20.10
2018-04-24T03:07:37.870Z,20.12
2018-04-24T03:08:37.860Z,20.08
2018-04-24T03:09:37.857Z,20.13
2018-04-24T03:10:37.846Z,20.16
2018-04-24T03:11:37.838Z,20.01
2018-04-24T03:12:37.831Z,20.12
2018-04-24T03:13:37.822Z,20.08
2018-04-24T03:14:37.816Z,20.02
2018-04-24T03:15:37.809Z,20.08
2018-04-24T03:16:37.800Z,20.08
2018-04-24T03:17:37.792Z,20.05
2018-04-24T03:18:37.784Z,20.02
2018-04-24T03:19:37.775Z,19.94
2018-04-24T03:20:37.768Z,20.04
2018-04-24T03:21:37.762Z,19.90
2018-04-24T03:22:37.753Z,20.01
2018-04-24T03:23:37.748Z,19.98
2018-04-24T03:24:37.740Z,20.01
2018-04-24T03:25:37.730Z,20.08
2018-04-24T03:26:37.723Z,19.95
2018-04-24T03:27:37.717Z,20.08
2018-04-24T03:28:37.715Z,20.01
2018-04-24T03:29:37.700Z,20.05
2018-04-24T03:30:37.692Z,20.05
2018-04-24T03:31:37.685Z,20.08
2018-04-24T03:32:37.677Z,19.94
2018-04-24T03:33:37.670Z,19.97
2018-04-24T03:34:37.661Z,19.95
2018-04-24T03:35:37.654Z,19.94
2018-04-24T03:36:37.648Z,19.87
2018-04-24T03:37:37.638Z,19.83
2018-04-24T03:38:37.630Z,19.94
2018-04-24T03:39:37.622Z,19.90
2018-04-24T03:40:37.614Z,19.92
2018-04-24T03:41:37.607Z,19.87
2018-04-24T03:42:37.600Z,19.79
2018-04-24T03:43:37.592Z,19.83
2018-04-24T03:44:37.584Z,19.70
2018-04-24T03:45:37.577Z,19.85
2018-04-24T03:46:37.568Z,19.87
2018-04-24T03:47:37.561Z,19.86
2018-04-24T03:48:37.551Z,19.79
2018-04-24T03:49:37.545Z,19.83
2018-04-24T03:50:37.535Z,19.80
2018-04-24T03:51:37.529Z,19.79
2018-04-24T03:52:37.524Z,19.86
2018-04-24T03:53:37.514Z,19.83
2018-04-24T03:54:37.505Z,19.92
2018-04-24T03:55:37.496Z,19.80
2018-04-24T03:56:37.488Z,19.83
2018-04-24T03:57:37.483Z,19.87
2018-04-24T03:58:37.471Z,19.97
2018-04-24T03:59:37.477Z,19.85
2018-04-24T04:00:37.458Z,19.90
2018-04-24T04:01:37.452Z,19.95
2018-04-24T04:02:37.444Z,19.97
2018-04-24T04:03:37.436Z,19.98
2018-04-24T04:04:37.527Z,19.94
2018-04-24T04:05:37.421Z,19.97
2018-04-24T04:06:37.410Z,19.92
2018-04-24T04:07:37.497Z,19.94
2018-04-24T04:08:37.395Z,20.04
2018-04-24T04:09:37.389Z,19.95
2018-04-24T04:10:37.384Z,19.98
2018-04-24T04:11:37.371Z,19.98
2018-04-24T04:12:37.365Z,19.90
2018-04-24T04:13:37.357Z,19.83
2018-04-24T04:14:37.347Z,19.86
2018-04-24T04:15:37.339Z,19.83
2018-04-24T04:16:37.333Z,19.82
2018-04-24T04:17:37.325Z,19.85
2018-04-24T04:18:37.318Z,19.72
2018-04-24T04:19:37.309Z,19.78
2018-04-24T04:20:37.303Z,19.67
2018-04-24T04:21:37.294Z,19.82
2018-04-24T04:22:37.286Z,19.82
2018-04-24T04:23:37.276Z,19.82
2018-04-24T04:24:37.271Z,19.79
2018-04-24T04:25:37.263Z,19.78
2018-04-24T04:26:37.259Z,19.76
2018-04-24T04:27:37.252Z,19.70
2018-04-24T04:28:37.240Z,19.64
2018-04-24T04:29:37.235Z,19.67
2018-04-24T04:30:37.223Z,19.55
2018-04-24T04:31:37.215Z,19.64
2018-04-24T04:32:37.207Z,19.64
2018-04-24T04:33:37.198Z,19.70
2018-04-24T04:34:37.199Z,19.65
2018-04-24T04:35:37.183Z,19.58
2018-04-24T04:36:37.176Z,19.57
2018-04-24T04:37:37.168Z,19.57
2018-04-24T04:38:37.158Z,19.55
2018-04-24T04:39:37.152Z,19.62
2018-04-24T04:40:37.144Z,19.64
2018-04-24T04:41:37.136Z,19.64
2018-04-24T04:42:37.128Z,19.62
2018-04-24T04:43:37.120Z,19.68
2018-04-24T04:44:37.111Z,19.61
2018-04-24T04:45:37.109Z,19.61
2018-04-24T04:46:37.095Z,19.61
2018-04-24T04:47:37.088Z,19.61
2018-04-24T04:48:37.080Z,19.71
2018-04-24T04:49:37.074Z,19.71
2018-04-24T04:50:37.063Z,19.62
2018-04-24T04:51:37.056Z,19.60
2018-04-24T04:52:37.058Z,19.58
2018-04-24T04:53:37.043Z,19.43
2018-04-24T04:54:37.031Z,19.40
2018-04-24T04:55:37.024Z,19.35
2018-04-24T04:56:37.017Z,19.32
2018-04-24T04:57:37.008Z,19.57
2018-04-24T04:58:36.998Z,19.45
2018-04-24T04:59:36.997Z,19.50
2018-04-24T05:00:36.984Z,19.47
2018-04-24T05:01:36.983Z,19.46
2018-04-24T05:02:36.967Z,19.45
2018-04-24T05:03:36.960Z,19.46
2018-04-24T05:04:37.054Z,19.38
2018-04-24T05:05:36.950Z,19.34
2018-04-24T05:06:36.934Z,19.35
2018-04-24T05:07:36.926Z,19.28
2018-04-24T05:08:36.918Z,19.23
2018-04-24T05:09:36.911Z,19.15
2018-04-24T05:10:36.901Z,19.16
2018-04-24T05:11:36.894Z,19.05
2018-04-24T05:12:36.887Z,19.07
2018-04-24T05:13:36.877Z,19.13
2018-04-24T05:14:36.869Z,19.10
2018-04-24T05:15:36.861Z,19.06
2018-04-24T05:16:36.853Z,19.07
2018-04-24T05:17:36.845Z,19.09
2018-04-24T05:18:36.835Z,18.97
2018-04-24T05:19:36.828Z,19.07
2018-04-24T05:20:36.818Z,19.05
2018-04-24T05:21:36.812Z,19.05
2018-04-24T05:22:36.803Z,18.94
2018-04-24T05:23:36.795Z,18.94
2018-04-24T05:24:36.786Z,19.01
2018-04-24T05:25:36.778Z,18.97
2018-04-24T05:26:36.779Z,18.97
2018-04-24T05:27:36.762Z,18.94
2018-04-24T05:28:36.752Z,18.97
2018-04-24T05:29:36.745Z,18.97
2018-04-24T05:30:36.736Z,18.93
2018-04-24T05:31:36.728Z,19.01
2018-04-24T05:32:36.721Z,18.99
2018-04-24T05:33:36.711Z,18.99
2018-04-24T05:34:36.703Z,19.05
2018-04-24T05:35:36.694Z,19.12
2018-04-24T05:36:36.686Z,18.97
2018-04-24T05:37:36.678Z,19.10
2018-04-24T05:38:36.669Z,19.05
2018-04-24T05:39:36.661Z,19.07
2018-04-24T05:40:36.657Z,19.09
2018-04-24T05:41:36.644Z,19.01
2018-04-24T05:42:36.637Z,19.06
2018-04-24T05:43:36.627Z,19.09
2018-04-24T05:44:36.619Z,19.20
2018-04-24T05:45:36.611Z,19.07
2018-04-24T05:46:36.604Z,19.06
2018-04-24T05:47:36.594Z,19.10
2018-04-24T05:48:36.585Z,19.07
2018-04-24T05:49:36.578Z,19.06
2018-04-24T05:50:36.573Z,19.15
2018-04-24T05:51:36.561Z,19.15
2018-04-24T05:52:36.555Z,19.12
2018-04-24T05:53:36.545Z,19.13
2018-04-24T05:54:36.537Z,19.15
2018-04-24T05:55:36.529Z,19.12
2018-04-24T05:56:36.518Z,19.12
2018-04-24T05:57:36.512Z,19.07
2018-04-24T05:58:36.666Z,19.10
2018-04-24T05:59:36.495Z,19.06
2018-04-24T06:00:36.486Z,19.09
2018-04-24T06:01:36.479Z,19.05
2018-04-24T06:02:36.469Z,19.10
2018-04-24T06:03:36.460Z,19.10
2018-04-24T06:04:36.453Z,19.15
2018-04-24T06:05:36.453Z,19.23
2018-04-24T06:06:36.436Z,19.13
2018-04-24T06:07:36.428Z,19.10
2018-04-24T06:08:36.435Z,19.15
2018-04-24T06:09:36.412Z,19.12
2018-04-24T06:10:36.477Z,19.20
2018-04-24T06:11:36.395Z,19.12
2018-04-24T06:12:36.387Z,19.16
2018-04-24T06:13:36.383Z,19.17
2018-04-24T06:14:36.370Z,19.16
2018-04-24T06:15:36.362Z,19.17
2018-04-24T06:16:36.454Z,19.16
2018-04-24T06:17:36.346Z,19.25
2018-04-24T06:18:36.337Z,19.30
2018-04-24T06:19:36.328Z,19.30
2018-04-24T06:20:36.321Z,19.31
2018-04-24T06:21:36.312Z,19.32
2018-04-24T06:22:36.385Z,19.32
2018-04-24T06:23:36.296Z,19.28
2018-04-24T06:24:36.287Z,19.31
2018-04-24T06:25:36.278Z,19.30
2018-04-24T06:26:36.270Z,19.32
2018-04-24T06:27:36.262Z,19.35
2018-04-24T06:28:36.348Z,19.39
2018-04-24T06:29:36.247Z,19.35
2018-04-24T06:30:36.237Z,19.30
2018-04-24T06:31:36.229Z,19.34
2018-04-24T06:32:36.232Z,19.40
2018-04-24T06:33:36.213Z,19.34
2018-04-24T06:34:36.204Z,19.34
2018-04-24T06:35:36.196Z,19.31
2018-04-24T06:36:36.189Z,19.34
2018-04-24T06:37:36.180Z,19.28
2018-04-24T06:38:36.171Z,19.25
2018-04-24T06:39:36.164Z,19.24
2018-04-24T06:40:36.161Z,19.34
2018-04-24T06:41:36.149Z,19.32
2018-04-24T06:42:36.139Z,19.34
2018-04-24T06:43:36.128Z,19.35
2018-04-24T06:44:36.122Z,19.35
2018-04-24T06:45:36.114Z,19.35
2018-04-24T06:46:36.105Z,19.42
2018-04-24T06:47:36.097Z,19.35
2018-04-24T06:48:36.089Z,19.35
2018-04-24T06:49:36.081Z,19.30
2018-04-24T06:50:36.072Z,19.35
2018-04-24T06:51:36.064Z,19.31
2018-04-24T06:52:36.061Z,19.38
2018-04-24T06:53:36.053Z,19.32
2018-04-24T06:54:36.040Z,19.27
2018-04-24T06:55:36.031Z,19.24
2018-04-24T06:56:36.022Z,19.31
2018-04-24T06:57:36.015Z,19.27
2018-04-24T06:58:36.004Z,19.24
2018-04-24T06:59:35.998Z,19.27
2018-04-24T07:00:36.078Z,19.24
2018-04-24T07:01:35.984Z,19.15
2018-04-24T07:02:35.973Z,19.07
2018-04-24T07:03:35.968Z,19.06
2018-04-24T07:04:36.077Z,19.07
2018-04-24T07:05:35.949Z,18.99
2018-04-24T07:06:35.940Z,19.02
2018-04-24T07:07:35.932Z,18.91
2018-04-24T07:08:35.921Z,18.93
2018-04-24T07:09:35.915Z,18.86
2018-04-24T07:10:36.006Z,18.91
2018-04-24T07:11:35.898Z,18.97
2018-04-24T07:12:35.890Z,18.94
2018-04-24T07:13:35.885Z,18.97
2018-04-24T07:14:35.872Z,19.01
2018-04-24T07:15:35.869Z,18.94
2018-04-24T07:16:35.856Z,18.90
2018-04-24T07:17:35.847Z,18.91
2018-04-24T07:18:35.837Z,18.90
2018-04-24T07:19:35.828Z,18.83
2018-04-24T07:20:35.821Z,18.97
2018-04-24T07:21:35.813Z,18.94
2018-04-24T07:22:35.803Z,18.97
2018-04-24T07:23:35.796Z,18.99
2018-04-24T07:24:35.789Z,18.94
2018-04-24T07:25:35.782Z,18.93
2018-04-24T07:26:35.769Z,18.86
2018-04-24T07:27:35.761Z,18.76
2018-04-24T07:28:35.753Z,18.79
2018-04-24T07:29:35.745Z,18.76
2018-04-24T07:30:35.734Z,18.79
2018-04-24T07:31:35.727Z,18.78
2018-04-24T07:32:35.719Z,18.78
2018-04-24T07:33:35.711Z,18.74
2018-04-24T07:34:35.800Z,18.65
2018-04-24T07:35:35.692Z,18.71
2018-04-24T07:36:35.683Z,18.64
2018-04-24T07:37:35.675Z,18.76
2018-04-24T07:38:35.666Z,18.79
2018-04-24T07:39:35.657Z,18.82
2018-04-24T07:40:35.647Z,18.79
2018-04-24T07:41:35.640Z,18.75
2018-04-24T07:42:35.629Z,18.78
2018-04-24T07:43:35.623Z,18.79
2018-04-24T07:44:35.613Z,18.79
2018-04-24T07:45:35.605Z,18.79
2018-04-24T07:46:35.612Z,18.78
2018-04-24T07:47:35.587Z,18.83
2018-04-24T07:48:35.581Z,18.79
2018-04-24T07:49:35.569Z,18.78
2018-04-24T07:50:35.560Z,18.76
2018-04-24T07:51:35.551Z,18.76
2018-04-24T07:52:35.544Z,18.62
2018-04-24T07:53:35.534Z,18.56
2018-04-24T07:54:35.524Z,18.62
2018-04-24T07:55:35.518Z,18.54
2018-04-24T07:56:35.507Z,18.56
2018-04-24T07:57:35.500Z,18.60
2018-04-24T07:58:35.489Z,18.51
2018-04-24T07:59:35.481Z,18.53
2018-04-24T08:00:35.473Z,18.44
2018-04-24T08:01:35.464Z,18.51
2018-04-24T08:02:35.455Z,18.44
2018-04-24T08:03:35.446Z,18.50
2018-04-24T08:04:35.437Z,18.54
2018-04-24T08:05:35.429Z,18.49
2018-04-24T08:06:35.423Z,18.39
2018-04-24T08:07:35.413Z,18.39
2018-04-24T08:08:35.402Z,18.28
2018-04-24T08:09:35.392Z,18.41
2018-04-24T08:10:35.383Z,18.34
2018-04-24T08:11:35.375Z,18.34
2018-04-24T08:12:35.369Z,18.34
2018-04-24T08:13:35.357Z,18.34
2018-04-24T08:14:35.350Z,18.36
2018-04-24T08:15:35.339Z,18.35
2018-04-24T08:16:35.411Z,18.35
2018-04-24T08:17:35.321Z,18.19
2018-04-24T08:18:35.311Z,18.21
2018-04-24T08:19:35.306Z,18.19
2018-04-24T08:20:35.293Z,18.32
2018-04-24T08:21:35.282Z,18.34
2018-04-24T08:22:35.274Z,18.23
2018-04-24T08:23:35.265Z,18.31
2018-04-24T08:24:35.260Z,18.21
2018-04-24T08:25:35.247Z,18.20
2018-04-24T08:26:35.237Z,18.21
2018-04-24T08:27:35.234Z,18.23
2018-04-24T08:28:35.222Z,18.19
2018-04-24T08:29:35.214Z,18.29
2018-04-24T08:30:35.200Z,18.19
2018-04-24T08:31:35.191Z,18.20
2018-04-24T08:32:35.186Z,18.36
2018-04-24T08:33:35.246Z,18.35
2018-04-24T08:34:35.164Z,18.19
2018-04-24T08:35:35.155Z,18.23
2018-04-24T08:36:35.150Z,18.17
2018-04-24T13:11:13.439Z,26.03
2018-04-24T13:12:13.188Z,26.12
2018-04-24T13:13:13.178Z,25.91
2018-04-24T13:14:13.172Z,25.89
2018-04-24T13:15:13.168Z,26.06
2018-04-24T13:16:13.167Z,26.19
2018-04-24T13:17:13.166Z,26.19
2018-04-24T13:18:13.163Z,26.39
2018-04-24T13:19:13.156Z,26.24
2018-04-24T13:20:13.152Z,26.03
2018-04-24T13:21:13.150Z,26.13
2018-04-24T13:22:13.145Z,26.34
2018-04-24T13:23:13.141Z,26.39
2018-04-24T13:24:13.139Z,26.32
2018-04-24T13:25:13.135Z,25.97
2018-04-24T13:26:13.282Z,25.86
2018-04-24T13:27:13.126Z,25.85
2018-04-24T13:28:13.131Z,26.04
2018-04-24T13:29:13.122Z,26.17
2018-04-24T13:30:13.119Z,26.28
2018-04-24T13:31:13.122Z,26.42
2018-04-24T13:32:13.111Z,26.59
2018-04-24T13:33:13.114Z,26.66
2018-04-24T13:34:13.103Z,26.59
2018-04-24T13:35:13.101Z,26.57
2018-04-24T13:36:13.097Z,26.47
2018-04-24T13:37:13.177Z,26.42
2018-04-24T13:38:13.090Z,26.28
2018-04-24T13:39:13.088Z,26.20
2018-04-24T13:40:13.084Z,26.27
2018-04-24T13:41:13.088Z,26.21
2018-04-24T13:42:13.163Z,26.31
2018-04-24T13:43:13.175Z,26.39
2018-04-24T13:44:13.072Z,26.38
2018-04-24T13:45:13.070Z,26.50
2018-04-24T13:46:13.064Z,26.65
2018-04-24T13:47:13.066Z,26.65
2018-04-24T13:48:13.058Z,26.57
2018-04-24T13:49:13.056Z,26.60
2018-04-24T13:50:13.055Z,26.65
2018-04-24T13:51:13.049Z,26.56
2018-04-24T13:52:13.055Z,26.49
2018-04-24T13:53:13.044Z,26.69
2018-04-24T13:54:13.040Z,26.76
2018-04-24T13:55:13.041Z,26.87
2018-04-24T13:56:13.034Z,26.93
2018-04-24T13:57:13.033Z,27.02
2018-04-24T13:58:13.030Z,26.98
2018-04-24T13:59:13.029Z,27.13
2018-04-24T14:00:13.030Z,27.23
2018-04-24T14:01:13.025Z,27.24
2018-04-24T14:02:13.022Z,27.16
2018-04-24T14:03:13.017Z,27.31
2018-04-24T14:04:13.030Z,27.50
2018-04-24T14:05:13.017Z,27.58
2018-04-24T14:06:13.007Z,27.58
2018-04-24T14:07:13.006Z,27.45
2018-04-24T14:08:13.062Z,27.50
2018-04-24T14:09:12.999Z,27.49
2018-04-24T14:10:12.997Z,27.50
2018-04-24T14:11:12.995Z,27.46
2018-04-24T14:12:13.058Z,27.39
2018-04-24T14:13:12.991Z,27.43
2018-04-24T14:14:12.986Z,27.12
2018-04-24T14:15:12.985Z,26.94
2018-04-24T14:16:12.983Z,26.65
2018-04-24T14:17:12.982Z,26.47
2018-04-24T14:18:12.976Z,26.16
2018-04-24T14:19:13.072Z,25.91
2018-04-24T14:20:12.975Z,26.00
2018-04-24T14:21:12.970Z,26.17
2018-04-24T14:22:12.967Z,26.27
2018-04-24T14:23:12.962Z,26.35
2018-04-24T14:24:12.962Z,26.49
2018-04-24T14:25:12.957Z,26.56
2018-04-24T14:26:12.963Z,26.69
2018-04-24T14:27:12.952Z,26.78
2018-04-24T14:28:12.948Z,26.94
2018-04-24T14:29:12.946Z,26.81
2018-04-24T14:30:12.942Z,26.87
2018-04-24T14:31:12.939Z,27.05
2018-04-24T14:32:12.937Z,27.23
2018-04-24T14:33:12.935Z,27.24
2018-04-24T14:34:12.931Z,27.33
2018-04-24T14:35:12.927Z,27.34
2018-04-24T14:36:12.926Z,27.59
2018-04-24T14:37:12.925Z,27.68
2018-04-24T14:38:12.968Z,27.71
2018-04-24T14:39:12.922Z,27.88
2018-04-24T14:40:12.917Z,27.93
2018-04-24T14:41:12.915Z,27.83
2018-04-24T14:42:12.911Z,27.80
2018-04-24T14:43:12.910Z,27.91
2018-04-24T14:44:12.908Z,27.90
2018-04-24T14:45:12.906Z,27.90
2018-04-24T14:46:12.904Z,27.88
2018-04-24T14:47:12.901Z,27.88
2018-04-24T14:48:12.898Z,27.76
2018-04-24T14:49:12.897Z,27.74
2018-04-24T14:50:12.894Z,27.86
2018-04-24T14:51:12.893Z,27.78
2018-04-24T14:52:12.915Z,27.65
2018-04-24T14:53:12.896Z,27.66
2018-04-24T14:54:12.884Z,27.49
2018-04-24T14:55:12.883Z,27.40
2018-04-24T14:56:12.881Z,27.46
2018-04-24T14:57:12.879Z,27.45
2018-04-24T14:58:12.883Z,27.42
2018-04-24T14:59:12.872Z,27.40
2018-04-24T15:00:12.872Z,27.27
2018-04-24T15:01:12.868Z,27.16
2018-04-24T15:02:12.866Z,26.94
2018-04-24T15:03:12.863Z,26.93
2018-04-24T15:04:12.867Z,26.83
2018-04-24T15:05:12.860Z,26.69
2018-04-24T15:06:12.855Z,26.59
2018-04-24T15:07:12.882Z,26.53
2018-04-24T15:08:12.850Z,26.59
2018-04-24T15:09:12.847Z,26.57
2018-04-24T15:10:12.843Z,26.54
2018-04-24T15:11:12.840Z,26.54
2018-04-24T15:12:12.838Z,26.47
2018-04-24T15:13:12.837Z,26.34
2018-04-24T15:14:12.832Z,26.39
2018-04-24T15:15:12.830Z,26.27
2018-04-24T15:16:12.825Z,26.35
2018-04-24T15:17:12.823Z,26.32
2018-04-24T15:18:12.822Z,26.24
2018-04-24T15:19:12.817Z,26.13
2018-04-24T15:20:12.812Z,25.89
2018-04-24T15:21:12.811Z,25.91
2018-04-24T15:22:12.807Z,25.85
2018-04-24T15:23:12.803Z,25.82
2018-04-24T15:24:12.800Z,25.81
2018-04-24T15:25:12.796Z,25.78
2018-04-24T15:26:12.793Z,25.74
2018-04-24T15:27:12.789Z,25.72
2018-04-24T15:28:12.804Z,25.78
2018-04-24T15:29:12.782Z,25.71
2018-04-24T15:30:12.778Z,25.72
2018-04-24T15:31:12.779Z,25.64
2018-04-24T15:32:12.772Z,25.64
2018-04-24T15:33:12.769Z,25.78
2018-04-24T15:34:12.763Z,25.85
2018-04-24T15:35:12.762Z,25.76
2018-04-24T15:36:12.757Z,25.89
2018-04-24T15:37:12.752Z,25.89
2018-04-24T15:38:12.750Z,25.89
2018-04-24T15:39:12.747Z,25.75
2018-04-24T15:40:12.742Z,25.74
2018-04-24T15:41:12.739Z,25.86
2018-04-24T15:42:12.734Z,25.94
2018-04-24T15:43:12.731Z,25.89
2018-04-24T15:44:12.727Z,25.93
2018-04-24T15:45:12.726Z,25.89
2018-04-24T15:46:12.721Z,25.90
2018-04-24T15:47:12.716Z,25.90
2018-04-24T15:48:12.713Z,25.93
2018-04-24T15:49:12.707Z,25.90
2018-04-24T15:50:12.705Z,25.94
2018-04-24T15:51:12.701Z,25.91
2018-04-24T15:52:12.698Z,25.93
2018-04-24T15:53:12.694Z,25.91
2018-04-24T15:54:12.689Z,25.94
2018-04-24T15:55:12.687Z,25.91
2018-04-24T15:56:12.687Z,25.94
2018-04-24T15:57:12.728Z,26.00
2018-04-24T15:58:12.675Z,26.00
2018-04-24T15:59:12.672Z,25.96
2018-04-24T16:00:12.669Z,25.91
2018-04-24T16:01:12.667Z,25.90
2018-04-24T16:02:12.666Z,25.89
2018-04-24T16:03:12.677Z,25.79
2018-04-24T16:04:12.654Z,25.75
2018-04-24T16:05:12.650Z,25.76
2018-04-24T16:06:12.647Z,25.72
2018-04-24T16:07:12.643Z,25.79
2018-04-24T16:08:12.641Z,25.82
2018-04-24T16:09:12.637Z,25.78
2018-04-24T16:10:12.633Z,25.82
2018-04-24T16:11:12.629Z,25.86
2018-04-24T16:12:12.625Z,25.94
2018-04-24T16:13:12.620Z,25.98
2018-04-24T16:14:12.619Z,26.09
2018-04-24T16:15:12.616Z,26.12
2018-04-24T16:16:12.610Z,26.13
2018-04-24T16:17:12.608Z,26.11
2018-04-24T16:18:12.602Z,26.21
2018-04-24T16:19:12.603Z,26.28
2018-04-24T16:20:12.596Z,26.28
2018-04-24T16:21:12.593Z,26.32
2018-04-24T16:22:12.588Z,26.23
2018-04-24T16:23:12.589Z,26.23
2018-04-24T16:24:12.658Z,26.23
2018-04-24T16:25:12.578Z,26.28
2018-04-24T16:26:12.579Z,26.34
2018-04-24T16:27:12.624Z,26.46
2018-04-24T16:28:12.569Z,26.39
2018-04-24T16:29:12.566Z,26.49
2018-04-24T16:30:12.606Z,26.50
2018-04-24T16:31:12.557Z,26.57
2018-04-24T16:32:12.555Z,26.57
2018-04-24T16:33:12.552Z,26.56
2018-04-24T16:34:12.549Z,26.59
2018-04-24T16:35:12.544Z,26.60
2018-04-24T16:36:12.544Z,26.65
2018-04-24T16:37:12.538Z,26.69
2018-04-24T16:38:12.533Z,26.64
2018-04-24T16:39:12.535Z,26.65
2018-04-24T16:40:12.533Z,26.50
2018-04-24T16:41:12.529Z,26.65
2018-04-24T16:42:12.526Z,26.54
2018-04-24T16:43:12.522Z,26.65
2018-04-24T16:44:12.521Z,26.65
2018-04-24T16:45:12.516Z,26.72
2018-04-24T16:46:12.516Z,26.69
2018-04-24T16:47:12.511Z,26.68
2018-04-24T16:48:12.512Z,26.68
2018-04-24T16:49:12.503Z,26.54
2018-04-24T16:50:12.501Z,26.69
2018-04-24T16:51:12.503Z,26.76
2018-04-24T16:52:12.497Z,26.93
2018-04-24T16:53:12.490Z,26.93
2018-04-24T16:54:12.487Z,26.79
2018-04-24T16:55:12.484Z,26.90
2018-04-24T16:56:12.509Z,26.97
2018-04-24T16:57:12.477Z,26.94
2018-04-24T16:58:12.475Z,26.90
2018-04-24T16:59:12.472Z,26.88
2018-04-24T17:00:12.470Z,26.83
2018-04-24T17:01:12.466Z,26.75
2018-04-24T17:02:12.466Z,26.59
2018-04-24T17:03:12.460Z,26.57
2018-04-24T17:04:12.457Z,26.65
2018-04-24T17:05:12.454Z,26.69
2018-04-24T17:06:12.458Z,26.69
2018-04-24T17:07:12.450Z,26.64
2018-04-24T17:08:12.443Z,26.64
2018-04-24T17:09:12.443Z,26.53
2018-04-24T17:10:12.440Z,26.46
2018-04-24T17:11:12.439Z,26.46
2018-04-24T17:12:12.435Z,26.47
2018-04-24T17:13:12.430Z,26.51
2018-04-24T17:14:12.427Z,26.49
2018-04-24T17:15:12.423Z,26.39
2018-04-24T17:16:12.424Z,26.41
2018-04-24T17:17:12.417Z,26.36
2018-04-24T17:18:12.414Z,26.23
2018-04-24T17:19:12.411Z,26.13
2018-04-24T17:20:12.407Z,25.97
2018-04-24T17:21:12.409Z,25.98
2018-04-24T17:22:12.399Z,26.01
2018-04-24T17:23:12.395Z,26.01
2018-04-24T17:24:12.398Z,26.03
2018-04-24T17:25:12.392Z,26.09
2018-04-24T17:26:12.385Z,26.00